Time;durP1;ratioP1;P1;durP2;ratioP2;P2;SDS_P1;SDS_P2;PMS_P1;PMS_P2;Temp;Humidity;BMP_temperature;BMP_pressure;BME280_temperature;BME280_humidity;BME280_pressure;Samples;Min_cycle;Max_cycle;Signal;HPM_P1;HPM_P2
2023/09/06 00:03:37;;;;;;;7.07;3.90;;;;;18.80;101304.00;;;;10473040;28;20238;-83
2023/09/06 00:08:39;;;;;;;6.32;4.35;;;;;18.70;101306.00;;;;10492481;28;20216;-83
2023/09/06 00:13:40;;;;;;;4.43;3.58;;;;;18.60;101299.00;;;;10509793;28;20205;-83
2023/09/06 00:18:42;;;;;;;7.70;4.63;;;;;18.60;101306.00;;;;10499180;28;20260;-82
2023/09/06 00:23:43;;;;;;;7.43;4.57;;;;;18.50;101299.00;;;;10507846;28;20192;-82
2023/09/06 00:28:45;;;;;;;8.77;4.40;;;;;18.40;101296.00;;;;10454063;28;20334;-83
2023/09/06 00:33:47;;;;;;;4.97;4.45;;;;;18.30;101313.00;;;;10485422;28;20738;-82
2023/09/06 00:38:49;;;;;;;6.20;4.88;;;;;18.30;101307.00;;;;10470618;28;20584;-82
2023/09/06 00:43:51;;;;;;;5.30;4.72;;;;;18.20;101316.00;;;;10477152;28;20205;-83
2023/09/06 00:48:53;;;;;;;5.90;4.10;;;;;18.20;101314.00;;;;10455754;28;20585;-82
2023/09/06 00:53:55;;;;;;;9.07;4.40;;;;;18.10;101322.00;;;;10509108;28;20196;-83
2023/09/06 00:58:57;;;;;;;5.55;4.13;;;;;18.00;101328.00;;;;10493019;28;20192;-83
2023/09/06 01:03:59;;;;;;;9.02;4.03;;;;;18.00;101319.00;;;;10496533;28;20855;-83
2023/09/06 01:09:05;;;;;;;4.50;3.95;;;;;17.90;101321.00;;;;10453734;28;20213;-83
2023/09/06 01:14:08;;;;;;;4.57;4.18;;;;;17.90;101323.00;;;;10457466;28;20216;-83
2023/09/06 01:19:12;;;;;;;4.88;3.90;;;;;17.80;101319.00;;;;10480565;28;20180;-83
2023/09/06 01:24:15;;;;;;;8.20;3.83;;;;;17.80;101326.00;;;;10515881;28;20574;-82
2023/09/06 01:29:18;;;;;;;5.18;4.05;;;;;17.70;101315.00;;;;10478377;28;20340;-82
2023/09/06 01:34:19;;;;;;;4.68;3.83;;;;;17.60;101317.00;;;;10481790;28;20197;-82
2023/09/06 01:39:20;;;;;;;4.40;3.92;;;;;17.50;101310.00;;;;10479434;28;20230;-83
2023/09/06 01:44:21;;;;;;;6.18;4.22;;;;;17.50;101312.00;;;;10477408;28;20520;-82
2023/09/06 01:49:23;;;;;;;5.30;4.30;;;;;17.40;101304.00;;;;10458920;28;20590;-83
2023/09/06 01:54:25;;;;;;;6.18;4.55;;;;;17.40;101308.00;;;;10500462;28;20200;-83
2023/09/06 01:59:26;;;;;;;4.85;4.40;;;;;17.30;101308.00;;;;10458272;28;20253;-83
2023/09/06 02:04:27;;;;;;;5.32;4.80;;;;;17.30;101314.00;;;;10491088;28;20212;-82
2023/09/06 02:09:28;;;;;;;6.60;4.60;;;;;17.20;101317.00;;;;10504196;28;20540;-82
2023/09/06 02:14:30;;;;;;;9.35;4.47;;;;;17.20;101311.00;;;;10515765;28;20199;-82
2023/09/06 02:19:31;;;;;;;8.63;4.25;;;;;17.10;101307.00;;;;10489501;28;20192;-82
2023/09/06 02:24:32;;;;;;;9.32;4.47;;;;;17.10;101307.00;;;;10468773;28;20277;-82
2023/09/06 02:29:34;;;;;;;7.32;3.70;;;;;17.00;101309.00;;;;10527172;28;20219;-83
2023/09/06 02:34:35;;;;;;;8.98;4.57;;;;;17.00;101314.00;;;;10474202;28;20596;-82
2023/09/06 02:39:37;;;;;;;4.63;3.38;;;;;16.90;101307.00;;;;10488629;28;20485;-82
2023/09/06 02:44:38;;;;;;;4.30;3.90;;;;;16.90;101315.00;;;;10501106;27;20612;-82
2023/09/06 02:49:41;;;;;;;4.60;4.13;;;;;16.80;101314.00;;;;10462472;28;20654;-82
2023/09/06 02:54:42;;;;;;;12.27;4.97;;;;;16.80;101312.00;;;;10495434;28;20280;-82
2023/09/06 02:59:44;;;;;;;8.65;4.18;;;;;16.70;101316.00;;;;10506968;28;20418;-82
2023/09/06 03:04:45;;;;;;;5.25;4.35;;;;;16.70;101315.00;;;;10515806;28;20269;-83
2023/09/06 03:09:49;;;;;;;5.88;4.47;;;;;16.70;101314.00;;;;10492384;28;20212;-82
2023/09/06 03:14:55;;;;;;;4.75;4.07;;;;;16.60;101313.00;;;;10490730;28;20200;-82
2023/09/06 03:19:59;;;;;;;5.45;4.22;;;;;16.60;101318.00;;;;10486921;28;20279;-83
2023/09/06 03:25:02;;;;;;;5.82;4.70;;;;;16.60;101316.00;;;;10519347;28;20500;-82
2023/09/06 03:30:06;;;;;;;5.10;4.60;;;;;16.50;101327.00;;;;10526693;28;20197;-83
2023/09/06 03:35:09;;;;;;;5.53;3.92;;;;;16.40;101319.00;;;;10480931;28;20227;-83
2023/09/06 03:45:34;;;;;;;9.10;4.32;;;;;16.30;101312.00;;;;10488022;28;20497;-82
2023/09/06 03:50:35;;;;;;;6.13;4.55;;;;;16.20;101314.00;;;;10492133;28;20219;-82
2023/09/06 03:55:38;;;;;;;9.55;4.13;;;;;16.20;101322.00;;;;10480315;28;20366;-82
2023/09/06 04:00:42;;;;;;;12.27;4.40;;;;;16.10;101321.00;;;;10475850;28;20205;-83
2023/09/06 04:05:52;;;;;;;4.05;3.65;;;;;16.00;101325.00;;;;10476736;28;20273;-82
2023/09/06 04:10:55;;;;;;;5.43;3.88;;;;;16.00;101312.00;;;;10487914;28;20718;-82
2023/09/06 04:15:57;;;;;;;6.65;4.50;;;;;15.90;101315.00;;;;10460086;28;20544;-82
2023/09/06 04:21:00;;;;;;;5.82;4.40;;;;;15.90;101325.00;;;;10516674;28;20188;-82
2023/09/06 04:26:03;;;;;;;7.43;4.15;;;;;15.80;101333.00;;;;10491146;28;20704;-82
2023/09/06 04:31:07;;;;;;;6.15;4.78;;;;;15.80;101337.00;;;;10496053;28;20205;-83
2023/09/06 04:36:13;;;;;;;10.48;5.60;;;;;15.70;101333.00;;;;10488822;28;20194;-83
2023/09/06 04:41:14;;;;;;;6.43;4.38;;;;;15.70;101320.00;;;;10491429;28;20610;-83
2023/09/06 04:46:23;;;;;;;9.23;4.88;;;;;15.70;101329.00;;;;10485961;28;20742;-82
2023/09/06 04:51:27;;;;;;;6.43;4.60;;;;;15.60;101330.00;;;;10488421;28;20196;-83
2023/09/06 04:56:29;;;;;;;6.85;4.97;;;;;15.60;101338.00;;;;10485095;28;20662;-83
2023/09/06 05:01:32;;;;;;;6.47;4.50;;;;;15.50;101334.00;;;;10498657;28;20193;-83
2023/09/06 05:06:34;;;;;;;12.68;4.82;;;;;15.50;101336.00;;;;10496259;28;20581;-82
2023/09/06 05:11:36;;;;;;;8.70;5.10;;;;;15.60;101325.00;;;;10463628;28;20215;-82
2023/09/06 05:16:37;;;;;;;8.60;5.47;;;;;15.60;101333.00;;;;10478443;28;20196;-82
2023/09/06 05:21:38;;;;;;;8.57;5.50;;;;;15.70;101330.00;;;;10510019;28;20336;-83
2023/09/06 05:26:40;;;;;;;8.93;5.75;;;;;15.70;101336.00;;;;10500038;28;20457;-83
2023/09/06 05:31:42;;;;;;;6.60;4.95;;;;;15.80;101339.00;;;;10460648;28;20247;-83
2023/09/06 05:36:43;;;;;;;8.90;4.82;;;;;16.00;101340.00;;;;10477555;28;20193;-82
2023/09/06 05:41:45;;;;;;;6.55;5.15;;;;;16.10;101338.00;;;;10519838;27;20291;-82
2023/09/06 05:46:47;;;;;;;6.57;5.65;;;;;16.30;101348.00;;;;10472034;28;20216;-83
2023/09/06 05:51:48;;;;;;;6.93;5.45;;;;;16.60;101337.00;;;;10473174;28;20389;-83
2023/09/06 05:56:50;;;;;;;12.68;5.80;;;;;16.90;101344.00;;;;10494860;28;20395;-83
2023/09/06 06:01:51;;;;;;;9.82;5.80;;;;;17.20;101340.00;;;;10477422;28;20204;-83
2023/09/06 06:06:53;;;;;;;10.63;6.13;;;;;17.40;101348.00;;;;10477745;28;20255;-83
2023/09/06 06:11:54;;;;;;;6.35;5.70;;;;;17.70;101356.00;;;;10474161;28;20192;-83
2023/09/06 06:16:57;;;;;;;14.55;6.00;;;;;18.00;101352.00;;;;10474731;28;20809;-82
2023/09/06 06:22:02;;;;;;;10.10;5.93;;;;;18.30;101355.00;;;;10492671;28;20197;-83
2023/09/06 06:27:04;;;;;;;6.65;5.47;;;;;18.80;101361.00;;;;10496428;28;20220;-82
2023/09/06 06:32:06;;;;;;;6.15;4.20;;;;;19.50;101378.00;;;;10490522;28;20237;-84
2023/09/06 06:37:09;;;;;;;7.80;4.45;;;;;20.00;101378.00;;;;10513171;28;20212;-83
2023/09/06 06:42:10;;;;;;;9.95;4.80;;;;;20.20;101382.00;;;;10498635;28;20501;-84
2023/09/06 06:47:18;;;;;;;8.05;4.80;;;;;20.40;101386.00;;;;10476774;28;20406;-84
2023/09/06 06:52:19;;;;;;;6.80;4.20;;;;;20.80;101396.00;;;;10491853;28;20643;-83
2023/09/06 06:57:21;;;;;;;7.47;4.53;;;;;21.10;101403.00;;;;10476567;28;20209;-83
2023/09/06 07:02:22;;;;;;;8.13;4.28;;;;;21.10;101397.00;;;;10497002;28;20282;-83
2023/09/06 07:07:24;;;;;;;5.40;4.90;;;;;21.10;101395.00;;;;10482042;28;20208;-82
2023/09/06 07:12:26;;;;;;;7.80;4.63;;;;;21.40;101404.00;;;;10467325;28;20243;-83
2023/09/06 07:17:27;;;;;;;5.50;4.85;;;;;21.50;101407.00;;;;10503567;28;20271;-83
2023/09/06 07:22:28;;;;;;;5.25;4.38;;;;;21.40;101402.00;;;;10504824;28;20612;-84
2023/09/06 07:27:29;;;;;;;9.23;4.60;;;;;21.60;101412.00;;;;10500754;28;20303;-84
2023/09/06 07:32:31;;;;;;;4.68;3.72;;;;;21.70;101430.00;;;;10493019;28;20204;-84
2023/09/06 07:37:32;;;;;;;7.80;5.10;;;;;21.90;101429.00;;;;10473209;28;20201;-83
2023/09/06 07:42:38;;;;;;;5.10;4.35;;;;;22.10;101434.00;;;;10455506;28;20772;-83
2023/09/06 07:47:39;;;;;;;4.78;4.13;;;;;22.40;101433.00;;;;10474554;28;20456;-84
2023/09/06 07:52:43;;;;;;;9.98;3.90;;;;;22.70;101434.00;;;;10490233;28;20821;-83
2023/09/06 07:57:44;;;;;;;6.85;3.58;;;;;23.00;101435.00;;;;10503408;28;20736;-84
2023/09/06 08:02:45;;;;;;;7.18;3.72;;;;;23.30;101438.00;;;;10471135;28;20300;-83
2023/09/06 08:07:47;;;;;;;5.50;3.45;;;;;23.60;101432.00;;;;10459336;28;20411;-84
2023/09/06 08:12:48;;;;;;;3.65;3.20;;;;;24.00;101430.00;;;;10459447;28;20205;-84
2023/09/06 08:17:49;;;;;;;4.75;3.30;;;;;24.30;101434.00;;;;10491495;28;20641;-84
2023/09/06 08:22:51;;;;;;;7.47;3.35;;;;;24.60;101425.00;;;;10475365;28;20208;-84
2023/09/06 08:27:52;;;;;;;5.72;3.25;;;;;25.10;101430.00;;;;10473580;28;20219;-85
2023/09/06 08:32:55;;;;;;;3.63;2.92;;;;;25.50;101429.00;;;;10499532;28;20389;-84
2023/09/06 08:37:57;;;;;;;4.63;2.83;;;;;26.00;101432.00;;;;10464585;28;20197;-84
2023/09/06 08:43:03;;;;;;;7.93;2.85;;;;;26.80;101426.00;;;;10486479;28;20187;-85
2023/09/06 08:48:04;;;;;;;4.15;2.72;;;;;27.30;101432.00;;;;10488228;28;20221;-86
2023/09/06 08:53:10;;;;;;;6.45;2.83;;;;;27.70;101441.00;;;;10490726;27;20204;-86
2023/09/06 08:58:12;;;;;;;6.38;3.17;;;;;28.20;101427.00;;;;10481133;28;20566;-86
2023/09/06 09:03:13;;;;;;;3.38;2.50;;;;;28.50;101439.00;;;;10504821;28;20216;-85
2023/09/06 09:08:15;;;;;;;5.88;2.45;;;;;28.90;101436.00;;;;10468604;28;20885;-87
2023/09/06 09:13:16;;;;;;;2.55;2.30;;;;;29.30;101429.00;;;;10496527;28;20203;-86
2023/09/06 09:18:18;;;;;;;5.85;2.92;;;;;29.60;101430.00;;;;10503670;28;20204;-85
2023/09/06 09:23:19;;;;;;;3.15;2.42;;;;;29.80;101437.00;;;;10505275;28;20197;-86
2023/09/06 09:28:21;;;;;;;4.30;2.67;;;;;30.00;101418.00;;;;10480592;28;20223;-85
2023/09/06 09:33:27;;;;;;;3.20;2.45;;;;;30.30;101421.00;;;;10462105;28;20278;-85
2023/09/06 09:38:30;;;;;;;3.28;2.38;;;;;30.70;101423.00;;;;10501189;28;20594;-86
2023/09/06 09:43:32;;;;;;;6.70;2.42;;;;;30.90;101428.00;;;;10505162;28;20869;-85
2023/09/06 09:48:37;;;;;;;6.18;2.00;;;;;31.00;101420.00;;;;10491396;28;20222;-85
2023/09/06 09:53:39;;;;;;;4.38;2.15;;;;;31.20;101428.00;;;;10505265;28;20208;-85
2023/09/06 09:58:41;;;;;;;2.70;2.50;;;;;31.20;101417.00;;;;10493068;28;20397;-85
2023/09/06 10:03:44;;;;;;;2.95;2.20;;;;;31.40;101421.00;;;;10456602;28;20595;-85
2023/09/06 10:08:46;;;;;;;5.05;2.72;;;;;31.50;101421.00;;;;10495990;28;20213;-85
2023/09/06 10:13:50;;;;;;;3.92;2.10;;;;;31.70;101422.00;;;;10504261;28;20585;-86
2023/09/06 10:18:51;;;;;;;5.55;2.55;;;;;32.10;101419.00;;;;10495204;28;20196;-85
2023/09/06 10:23:54;;;;;;;2.92;2.40;;;;;32.20;101411.00;;;;10473746;28;20694;-87
2023/09/06 10:28:56;;;;;;;3.22;2.08;;;;;32.30;101421.00;;;;10486551;28;20201;-86
2023/09/06 10:33:58;;;;;;;4.75;2.40;;;;;32.30;101412.00;;;;10480776;28;20667;-86
2023/09/06 10:38:59;;;;;;;4.15;2.25;;;;;32.60;101409.00;;;;10458101;28;20265;-85
2023/09/06 10:44:03;;;;;;;2.83;1.90;;;;;32.80;101398.00;;;;10518565;28;20389;-85
2023/09/06 10:49:37;;;;;;;4.93;2.00;;;;;32.90;101400.00;;;;10490385;28;20300;-87
2023/09/06 10:54:41;;;;;;;2.10;1.90;;;;;33.10;101398.00;;;;10442260;28;20207;-88
2023/09/06 10:59:45;;;;;;;2.85;2.17;;;;;33.40;101396.00;;;;10479284;28;20223;-86
2023/09/06 11:04:47;;;;;;;2.45;1.67;;;;;33.60;101396.00;;;;10450713;28;20244;-85
2023/09/06 11:09:53;;;;;;;6.43;2.42;;;;;33.80;101391.00;;;;10469926;28;20228;-86
2023/09/06 11:14:54;;;;;;;2.50;1.92;;;;;33.90;101385.00;;;;10500411;28;20204;-87
2023/09/06 11:20:13;;;;;;;3.67;1.60;;;;;33.90;101384.00;;;;10476582;28;20204;-87
2023/09/06 11:25:19;;;;;;;2.80;1.90;;;;;33.90;101380.00;;;;10469624;28;20303;-86
2023/09/06 11:30:21;;;;;;;3.03;1.70;;;;;34.00;101375.00;;;;10478460;28;20204;-87
2023/09/06 11:35:29;;;;;;;1.60;1.50;;;;;34.10;101373.00;;;;10501206;28;20495;-85
2023/09/06 11:40:33;;;;;;;2.03;1.60;;;;;34.30;101374.00;;;;10482034;28;20193;-85
2023/09/06 11:45:35;;;;;;;2.58;1.75;;;;;34.40;101367.00;;;;10466812;28;20304;-84
2023/09/06 11:50:42;;;;;;;3.05;2.10;;;;;34.20;101373.00;;;;10522092;28;20197;-86
2023/09/06 11:55:47;;;;;;;1.83;1.40;;;;;34.20;101357.00;;;;10501976;28;20193;-85
2023/09/06 12:00:50;;;;;;;1.50;1.40;;;;;34.10;101357.00;;;;10484814;28;20203;-83
2023/09/06 12:05:56;;;;;;;3.92;1.63;;;;;34.30;101362.00;;;;10505065;28;20312;-84
2023/09/06 12:11:10;;;;;;;2.20;1.67;;;;;34.20;101357.00;;;;10484287;28;20467;-82
2023/09/06 12:16:12;;;;;;;4.43;1.40;;;;;34.40;101356.00;;;;10500459;28;20205;-84
2023/09/06 12:21:14;;;;;;;3.97;1.60;;;;;34.40;101347.00;;;;10467714;28;20197;-83
2023/09/06 12:26:17;;;;;;;2.90;1.30;;;;;34.60;101338.00;;;;10518371;28;20668;-84
2023/09/06 12:31:18;;;;;;;3.53;1.90;;;;;34.60;101327.00;;;;10484937;28;20201;-81
2023/09/06 12:36:20;;;;;;;5.70;2.20;;;;;34.50;101338.00;;;;10465850;28;20771;-82
2023/09/06 12:41:22;;;;;;;1.73;1.60;;;;;34.50;101342.00;;;;10492456;28;20185;-83
2023/09/06 12:46:23;;;;;;;1.58;1.48;;;;;34.60;101336.00;;;;10483771;28;20209;-83
2023/09/06 12:51:26;;;;;;;1.85;1.50;;;;;34.50;101334.00;;;;10499684;28;20188;-85
2023/09/06 12:56:28;;;;;;;5.20;1.63;;;;;34.70;101324.00;;;;10464580;28;20710;-83
2023/09/06 13:01:29;;;;;;;1.52;1.42;;;;;34.70;101324.00;;;;10482516;28;20208;-85
2023/09/06 13:06:31;;;;;;;1.30;1.15;;;;;34.40;101320.00;;;;10483694;28;20262;-83
2023/09/06 13:11:32;;;;;;;2.05;1.23;;;;;34.20;101320.00;;;;10449975;28;20204;-84
2023/09/06 13:16:34;;;;;;;3.85;1.20;;;;;34.10;101316.00;;;;10483197;28;20244;-83
2023/09/06 13:21:35;;;;;;;2.95;1.42;;;;;34.00;101318.00;;;;10490380;28;20193;-83
2023/09/06 13:26:38;;;;;;;1.55;1.30;;;;;33.90;101318.00;;;;10485039;28;20260;-83
2023/09/06 13:31:39;;;;;;;4.50;1.70;;;;;33.70;101316.00;;;;10519540;28;20453;-85
2023/09/06 13:36:41;;;;;;;4.35;1.67;;;;;33.80;101312.00;;;;10466842;28;20629;-83
2023/09/06 13:41:43;;;;;;;4.10;1.83;;;;;33.70;101310.00;;;;10480658;28;20473;-83
2023/09/06 13:46:46;;;;;;;2.80;1.45;;;;;33.40;101307.00;;;;10472768;28;20278;-84
2023/09/06 13:51:47;;;;;;;2.28;1.60;;;;;33.30;101310.00;;;;10486284;28;20977;-83
2023/09/06 13:56:49;;;;;;;4.03;1.80;;;;;33.30;101309.00;;;;10463291;28;21231;-84
2023/09/06 14:01:51;;;;;;;4.03;1.80;;;;;33.30;101308.00;;;;10463670;28;20292;-84
2023/09/06 14:06:54;;;;;;;3.70;1.77;;;;;33.30;101306.00;;;;10501873;28;20213;-85
2023/09/06 14:11:55;;;;;;;10.68;1.75;;;;;33.30;101303.00;;;;10454424;28;20570;-83
2023/09/06 14:16:57;;;;;;;4.85;1.90;;;;;33.30;101306.00;;;;10497340;28;20254;-82
2023/09/06 14:21:59;;;;;;;2.50;1.77;;;;;33.40;101294.00;;;;10488783;28;20671;-85
2023/09/06 14:27:00;;;;;;;5.05;2.03;;;;;32.90;101292.00;;;;10513611;28;20219;-83
2023/09/06 14:32:02;;;;;;;4.05;1.67;;;;;32.40;101293.00;;;;10479128;28;20204;-82
2023/09/06 14:37:03;;;;;;;2.90;1.50;;;;;32.10;101282.00;;;;10495342;28;20194;-86
2023/09/06 14:42:07;;;;;;;2.60;1.95;;;;;31.60;101282.00;;;;10451593;28;20236;-86
2023/09/06 14:47:08;;;;;;;3.85;2.00;;;;;31.20;101285.00;;;;10498035;28;20224;-85
2023/09/06 14:52:10;;;;;;;1.95;1.77;;;;;31.00;101275.00;;;;10494940;28;20280;-86
2023/09/06 14:57:11;;;;;;;6.05;1.85;;;;;30.90;101275.00;;;;10502470;28;20282;-86
2023/09/06 15:02:12;;;;;;;4.43;1.92;;;;;30.70;101278.00;;;;10490032;28;20193;-84
2023/09/06 15:07:14;;;;;;;2.22;1.83;;;;;30.50;101272.00;;;;10488811;28;20690;-84
2023/09/06 15:12:15;;;;;;;3.95;2.17;;;;;30.50;101271.00;;;;10494678;28;20193;-84
2023/09/06 15:17:21;;;;;;;3.17;2.10;;;;;30.30;101276.00;;;;10491290;28;20990;-86
2023/09/06 15:22:24;;;;;;;4.40;2.22;;;;;30.20;101276.00;;;;10473722;28;20676;-85
2023/09/06 15:27:40;;;;;;;5.90;2.20;;;;;30.00;101271.00;;;;10466470;28;20242;-86
2023/09/06 15:38:21;;;;;;;2.25;1.73;;;;;29.60;101279.00;;;;10361271;28;20231;-86
2023/09/06 15:43:23;;;;;;;3.40;1.77;;;;;29.60;101283.00;;;;10356533;28;20290;-84
2023/09/06 15:48:25;;;;;;;3.25;1.60;;;;;29.50;101282.00;;;;10567569;22;20234;-85
2023/09/06 15:53:26;;;;;;;5.57;2.05;;;;;29.40;101279.00;;;;10419627;28;20213;-83
2023/09/06 15:58:27;;;;;;;3.60;1.90;;;;;29.30;101270.00;;;;10374109;28;20251;-85
2023/09/06 16:03:30;;;;;;;4.22;1.77;;;;;29.20;101260.00;;;;10446666;28;20198;-82
2023/09/06 16:08:32;;;;;;;2.33;1.80;;;;;29.00;101265.00;;;;10409850;28;20301;-83
2023/09/06 16:13:33;;;;;;;3.15;2.00;;;;;29.00;101262.00;;;;10392745;28;20218;-83
2023/09/06 16:18:35;;;;;;;2.72;2.08;;;;;28.90;101267.00;;;;10409278;28;20214;-82
2023/09/06 16:23:36;;;;;;;3.40;1.92;;;;;28.80;101262.00;;;;10415862;28;20643;-83
2023/09/06 16:28:37;;;;;;;3.67;2.03;;;;;28.60;101267.00;;;;10435228;28;20412;-83
2023/09/06 16:33:39;;;;;;;5.85;2.30;;;;;28.40;101280.00;;;;10404330;28;20206;-83
2023/09/06 16:38:40;;;;;;;6.15;2.80;;;;;28.30;101269.00;;;;10403320;28;20208;-83
2023/09/06 16:43:42;;;;;;;3.88;2.80;;;;;28.20;101275.00;;;;10376428;28;20851;-82
2023/09/06 16:48:43;;;;;;;3.10;2.22;;;;;28.10;101275.00;;;;10392295;28;20237;-84
2023/09/06 16:53:45;;;;;;;6.60;2.03;;;;;27.90;101271.00;;;;10405309;28;20244;-83
2023/09/06 16:58:47;;;;;;;3.85;2.08;;;;;27.80;101273.00;;;;10407009;28;20209;-82
2023/09/06 17:03:48;;;;;;;8.05;2.45;;;;;27.60;101262.00;;;;10450252;28;20209;-82
2023/09/06 17:08:49;;;;;;;4.15;2.40;;;;;27.40;101265.00;;;;10410782;28;20230;-83
2023/09/06 17:13:50;;;;;;;2.97;2.50;;;;;27.20;101260.00;;;;10409415;28;20202;-82
2023/09/06 17:18:52;;;;;;;3.05;2.15;;;;;27.00;101260.00;;;;10410643;28;20198;-82
2023/09/06 17:23:54;;;;;;;5.35;2.40;;;;;26.80;101264.00;;;;10417580;28;20706;-82
2023/09/06 17:29:10;;;;;;;6.00;2.00;;;;;26.60;101267.00;;;;10418851;28;20899;-82
2023/09/06 17:34:11;;;;;;;9.77;2.85;;;;;26.40;101266.00;;;;10397113;28;20202;-82
2023/09/06 17:39:13;;;;;;;4.20;2.50;;;;;26.30;101270.00;;;;10437696;28;20236;-81
2023/09/06 17:44:14;;;;;;;6.03;2.55;;;;;25.90;101273.00;;;;10431449;28;20676;-84
2023/09/06 17:49:16;;;;;;;4.43;2.10;;;;;25.60;101281.00;;;;10394890;28;20953;-84
2023/09/06 17:54:23;;;;;;;5.45;2.70;;;;;25.30;101272.00;;;;10391208;28;20206;-83
2023/09/06 17:59:24;;;;;;;7.50;3.20;;;;;25.00;101278.00;;;;10376272;28;20284;-84
2023/09/06 18:04:26;;;;;;;5.35;2.60;;;;;24.70;101285.00;;;;10402656;28;20298;-82
2023/09/06 18:09:29;;;;;;;5.40;3.15;;;;;24.50;101289.00;;;;10374571;28;20703;-85
2023/09/06 18:14:30;;;;;;;4.65;3.30;;;;;24.30;101298.00;;;;10365663;28;21536;-83
2023/09/06 18:19:32;;;;;;;5.50;3.90;;;;;24.00;101303.00;;;;10387706;28;20198;-84
2023/09/06 18:24:33;;;;;;;5.57;3.40;;;;;23.80;101296.00;;;;10393324;28;20210;-82
2023/09/06 18:29:36;;;;;;;9.52;3.17;;;;;23.60;101299.00;;;;10398882;28;20223;-83
2023/09/06 18:34:38;;;;;;;4.30;3.90;;;;;23.50;101299.00;;;;10393038;28;20234;-83
2023/09/06 18:39:39;;;;;;;6.70;3.13;;;;;23.40;101292.00;;;;10383651;28;20237;-82
2023/09/06 18:44:41;;;;;;;7.38;4.00;;;;;23.40;101300.00;;;;10377631;28;20202;-82
2023/09/06 18:49:42;;;;;;;7.43;4.20;;;;;23.20;101305.00;;;;10370726;28;20933;-83
2023/09/06 18:54:43;;;;;;;5.60;4.20;;;;;23.00;101307.00;;;;10366485;28;20202;-83
2023/09/06 18:59:44;;;;;;;10.30;4.38;;;;;22.90;101318.00;;;;10382617;28;20203;-83
2023/09/06 19:04:47;;;;;;;8.07;4.22;;;;;22.70;101321.00;;;;10405390;28;20229;-83
2023/09/06 19:09:49;;;;;;;4.43;3.78;;;;;22.70;101317.00;;;;10389430;28;20983;-82
2023/09/06 19:14:50;;;;;;;6.03;3.75;;;;;22.60;101321.00;;;;10381551;28;20205;-83
2023/09/06 19:19:53;;;;;;;8.25;3.72;;;;;22.40;101324.00;;;;10394681;28;20257;-83
2023/09/06 19:24:54;;;;;;;6.70;3.65;;;;;22.40;101329.00;;;;10364508;28;20207;-83
2023/09/06 19:29:57;;;;;;;5.13;3.40;;;;;22.40;101339.00;;;;10380587;28;20245;-81
2023/09/06 19:34:58;;;;;;;5.38;3.60;;;;;22.20;101333.00;;;;10402626;28;20204;-82
2023/09/06 19:40:01;;;;;;;5.93;4.75;;;;;22.10;101339.00;;;;10378617;28;20205;-82
2023/09/06 19:45:02;;;;;;;7.60;4.50;;;;;21.90;101338.00;;;;10404224;28;20223;-84
2023/09/06 19:50:06;;;;;;;6.35;4.30;;;;;21.60;101345.00;;;;10401598;28;20210;-82
2023/09/06 19:55:08;;;;;;;6.80;4.30;;;;;21.40;101346.00;;;;10367267;28;20207;-83
2023/09/06 20:00:12;;;;;;;6.57;3.90;;;;;21.20;101344.00;;;;10375251;28;20848;-82
2023/09/06 20:05:15;;;;;;;7.40;4.28;;;;;21.00;101347.00;;;;10353691;28;20207;-83
2023/09/06 20:10:17;;;;;;;8.90;3.63;;;;;20.80;101345.00;;;;10403386;28;20210;-82
2023/09/06 20:15:18;;;;;;;9.80;4.75;;;;;20.70;101344.00;;;;10385887;28;20253;-83
2023/09/06 20:20:20;;;;;;;8.48;4.40;;;;;20.50;101341.00;;;;10367797;28;20207;-82
2023/09/06 20:25:22;;;;;;;6.97;4.50;;;;;20.30;101341.00;;;;10338239;28;20844;-83
2023/09/06 20:30:23;;;;;;;5.10;4.18;;;;;20.20;101342.00;;;;10389793;28;20572;-83
2023/09/06 20:35:24;;;;;;;6.70;4.28;;;;;20.10;101346.00;;;;10380369;28;20289;-83
2023/09/06 20:40:26;;;;;;;8.00;4.82;;;;;20.00;101345.00;;;;10381456;28;20232;-83
2023/09/06 20:45:27;;;;;;;9.10;4.93;;;;;19.90;101342.00;;;;10385461;28;20230;-84
2023/09/06 20:50:28;;;;;;;7.45;4.30;;;;;19.80;101350.00;;;;10392192;28;20237;-82
2023/09/06 20:55:31;;;;;;;9.10;4.55;;;;;19.70;101348.00;;;;10365801;28;20289;-83
2023/09/06 21:00:32;;;;;;;7.82;5.00;;;;;19.60;101352.00;;;;10357581;28;20238;-82
2023/09/06 21:05:34;;;;;;;6.57;4.68;;;;;19.50;101363.00;;;;10369399;28;20222;-83
2023/09/06 21:10:35;;;;;;;5.90;4.82;;;;;19.40;101351.00;;;;10343028;28;20227;-82
2023/09/06 21:15:37;;;;;;;8.93;5.05;;;;;19.30;101366.00;;;;10381799;28;20210;-82
2023/09/06 21:20:40;;;;;;;5.95;5.30;;;;;19.20;101365.00;;;;10390560;28;20210;-82
2023/09/06 21:25:42;;;;;;;5.93;4.70;;;;;19.10;101359.00;;;;10389158;28;20866;-82
2023/09/06 21:30:47;;;;;;;9.10;5.40;;;;;19.00;101360.00;;;;10402062;28;20238;-83
2023/09/06 21:35:48;;;;;;;7.57;5.07;;;;;18.90;101346.00;;;;10368369;28;20210;-82
2023/09/06 21:40:49;;;;;;;11.35;5.95;;;;;18.90;101348.00;;;;10386485;28;20903;-81
2023/09/06 21:45:52;;;;;;;13.82;8.23;;;;;18.80;101355.00;;;;10398626;28;20234;-83
2023/09/06 21:51:06;;;;;;;10.38;7.35;;;;;18.70;101350.00;;;;10376074;28;20656;-82
2023/09/06 21:56:08;;;;;;;8.32;6.38;;;;;18.60;101358.00;;;;10380745;28;20576;-81
2023/09/06 22:01:10;;;;;;;11.05;7.35;;;;;18.50;101363.00;;;;10390533;28;20647;-82
2023/09/06 22:06:29;;;;;;;11.98;8.50;;;;;18.50;101363.00;;;;10380799;28;20222;-82
2023/09/06 22:11:49;;;;;;;11.75;7.97;;;;;18.40;101355.00;;;;10380120;28;20252;-83
2023/09/06 22:16:50;;;;;;;9.70;7.40;;;;;18.30;101359.00;;;;10381488;28;20257;-83
2023/09/06 22:21:52;;;;;;;13.75;7.10;;;;;18.30;101360.00;;;;10384792;28;20213;-82
2023/09/06 22:26:53;;;;;;;10.73;7.47;;;;;18.20;101352.00;;;;10397581;28;20218;-81
2023/09/06 22:31:55;;;;;;;8.82;6.85;;;;;18.10;101355.00;;;;10388299;28;20602;-82
2023/09/06 22:36:57;;;;;;;8.82;6.93;;;;;18.10;101347.00;;;;10377012;28;20285;-82
2023/09/06 22:41:59;;;;;;;11.43;7.20;;;;;18.00;101347.00;;;;10406760;28;20294;-82
2023/09/06 22:47:02;;;;;;;11.95;7.20;;;;;18.00;101347.00;;;;10348827;28;20715;-85
2023/09/06 22:52:05;;;;;;;8.05;6.50;;;;;17.90;101348.00;;;;10389380;28;20206;-81
2023/09/06 22:57:11;;;;;;;10.43;6.18;;;;;17.90;101347.00;;;;10368285;28;20211;-82
2023/09/06 23:02:12;;;;;;;9.18;6.15;;;;;17.80;101357.00;;;;10351814;28;20207;-83
2023/09/06 23:07:15;;;;;;;11.68;7.05;;;;;17.70;101345.00;;;;10409063;28;20206;-83
2023/09/06 23:12:17;;;;;;;8.02;6.22;;;;;17.60;101359.00;;;;10381099;28;20774;-84
2023/09/06 23:17:22;;;;;;;9.40;6.47;;;;;17.50;101351.00;;;;10389533;28;20195;-81
2023/09/06 23:22:24;;;;;;;8.93;6.60;;;;;17.40;101358.00;;;;10367322;28;20211;-82
2023/09/06 23:27:27;;;;;;;9.43;6.53;;;;;17.40;101351.00;;;;10401550;28;20702;-83
2023/09/06 23:32:31;;;;;;;14.20;8.13;;;;;17.30;101357.00;;;;10385707;28;20665;-83
2023/09/06 23:37:32;;;;;;;7.75;6.72;;;;;17.20;101338.00;;;;10375518;28;20199;-83
2023/09/06 23:42:36;;;;;;;11.65;7.70;;;;;17.20;101345.00;;;;10351667;28;20822;-83
2023/09/06 23:47:38;;;;;;;11.15;8.70;;;;;17.20;101342.00;;;;10417845;28;20257;-83
2023/09/06 23:52:39;;;;;;;10.20;7.70;;;;;17.20;101341.00;;;;10386108;28;20202;-83
2023/09/06 23:57:41;;;;;;;15.18;7.68;;;;;17.20;101334.00;;;;10366585;28;20290;-82
